createdAt,value
2023-05-13T00:02:08.421Z,11.54
2023-05-13T00:05:10.996Z,11.55
2023-05-13T00:08:13.634Z,11.49
2023-05-13T00:11:16.071Z,11.53
2023-05-13T00:14:18.498Z,11.50
2023-05-13T00:17:21.136Z,11.47
2023-05-13T00:20:23.780Z,11.40
2023-05-13T00:23:26.343Z,11.46
2023-05-13T00:26:29.544Z,11.54
2023-05-13T00:29:32.036Z,11.38
2023-05-13T00:32:34.588Z,11.38
2023-05-13T00:35:38.312Z,11.40
2023-05-13T00:38:40.714Z,11.39
2023-05-13T00:41:43.547Z,11.36
2023-05-13T00:44:46.662Z,11.39
2023-05-13T00:47:49.711Z,11.35
2023-05-13T00:50:52.544Z,11.26
2023-05-13T00:53:58.072Z,11.39
2023-05-13T00:57:00.812Z,11.36
2023-05-13T01:00:05.879Z,11.39
2023-05-13T01:03:22.720Z,11.26
2023-05-13T01:07:04.384Z,11.30
2023-05-13T01:10:19.803Z,11.31
2023-05-13T01:13:29.360Z,11.25
2023-05-13T01:17:02.735Z,11.24
2023-05-13T01:20:06.206Z,11.14
2023-05-13T01:23:10.229Z,11.23
2023-05-13T01:26:13.471Z,11.12
2023-05-13T01:29:16.917Z,11.24
2023-05-13T01:32:21.950Z,11.12
2023-05-13T01:35:26.353Z,11.19
2023-05-13T01:38:31.853Z,11.24
2023-05-13T01:41:35.621Z,11.20
2023-05-13T01:44:38.143Z,11.13
2023-05-13T01:47:40.755Z,11.04
2023-05-13T01:50:44.302Z,11.02
2023-05-13T01:53:46.810Z,11.09
2023-05-13T01:56:49.462Z,11.02
2023-05-13T01:59:53.020Z,11.05
2023-05-13T02:02:55.747Z,11.07
2023-05-13T02:05:58.586Z,11.05
2023-05-13T02:09:01.481Z,11.09
2023-05-13T02:12:05.320Z,11.01
2023-05-13T02:15:08.303Z,11.06
2023-05-13T02:18:10.880Z,10.98
2023-05-13T02:21:13.400Z,11.11
2023-05-13T02:24:17.245Z,11.04
2023-05-13T02:27:20.888Z,11.02
2023-05-13T02:30:26.927Z,11.06
2023-05-13T02:33:29.415Z,11.06
2023-05-13T02:36:31.864Z,11.03
2023-05-13T02:39:34.311Z,11.06
2023-05-13T02:42:36.886Z,11.00
2023-05-13T02:45:40.844Z,10.96
2023-05-13T02:48:43.844Z,11.00
2023-05-13T02:51:46.344Z,10.96
2023-05-13T02:54:49.215Z,10.81
2023-05-13T02:57:51.762Z,10.94
2023-05-13T03:00:55.275Z,10.89
2023-05-13T03:03:59.941Z,10.86
2023-05-13T03:07:02.408Z,10.87
2023-05-13T03:10:05.890Z,10.84
2023-05-13T03:13:08.422Z,10.85
2023-05-13T03:16:11.097Z,10.73
2023-05-13T03:19:13.670Z,10.79
2023-05-13T03:22:16.726Z,10.75
2023-05-13T03:25:19.901Z,10.70
2023-05-13T03:28:27.513Z,10.73
2023-05-13T03:31:29.994Z,10.77
2023-05-13T03:34:36.260Z,10.79
2023-05-13T03:37:39.792Z,10.84
2023-05-13T03:40:44.019Z,10.85
2023-05-13T03:43:46.636Z,10.87
2023-05-13T03:46:50.431Z,10.89
2023-05-13T03:49:54.986Z,10.93
2023-05-13T03:52:57.954Z,10.96
2023-05-13T03:56:00.344Z,10.98
2023-05-13T03:59:03.882Z,10.89
2023-05-13T04:02:06.481Z,10.83
2023-05-13T04:05:09.559Z,10.92
2023-05-13T04:08:12.513Z,11.01
2023-05-13T04:11:14.973Z,11.02
2023-05-13T04:14:17.442Z,11.03
2023-05-13T04:17:19.883Z,11.05
2023-05-13T04:20:22.627Z,11.01
2023-05-13T04:23:25.474Z,10.89
2023-05-13T04:26:27.812Z,11.12
2023-05-13T04:29:30.377Z,11.10
2023-05-13T04:32:33.540Z,11.18
2023-05-13T04:35:36.189Z,11.11
2023-05-13T04:38:39.707Z,11.13
2023-05-13T04:41:42.550Z,11.23
2023-05-13T04:44:45.387Z,11.25
2023-05-13T04:47:48.671Z,11.21
2023-05-13T04:50:52.481Z,11.24
2023-05-13T04:53:55.532Z,11.27
2023-05-13T04:56:58.017Z,11.14
2023-05-13T05:00:01.403Z,11.11
2023-05-13T05:03:06.763Z,11.29
2023-05-13T05:06:09.484Z,11.41
2023-05-13T05:09:12.026Z,11.28
2023-05-13T05:12:14.602Z,11.51
2023-05-13T05:15:17.497Z,11.57
2023-05-13T05:18:23.606Z,11.40
2023-05-13T05:21:27.475Z,11.53
2023-05-13T05:24:31.389Z,11.69
2023-05-13T05:27:33.806Z,11.68
2023-05-13T05:30:39.888Z,11.72
2023-05-13T05:33:48.318Z,11.68
2023-05-13T05:36:50.874Z,11.63
2023-05-13T05:39:55.316Z,11.69
2023-05-13T05:42:57.896Z,11.62
2023-05-13T05:46:00.584Z,11.61
2023-05-13T05:49:03.730Z,11.58
2023-05-13T05:52:11.074Z,11.65
2023-05-13T05:55:13.660Z,11.63
2023-05-13T05:58:17.130Z,11.65
2023-05-13T06:01:20.113Z,11.84
2023-05-13T06:04:23.338Z,11.82
2023-05-13T06:07:27.414Z,11.92
2023-05-13T06:10:30.129Z,11.93
2023-05-13T06:13:33.555Z,11.99
2023-05-13T06:16:36.175Z,12.06
2023-05-13T06:22:41.853Z,11.86
2023-05-13T06:25:44.375Z,11.79
2023-05-13T06:28:46.823Z,11.91
2023-05-13T06:31:49.375Z,11.89
2023-05-13T06:34:53.962Z,11.84
2023-05-13T06:37:58.422Z,11.66
2023-05-13T06:41:00.994Z,11.82
2023-05-13T06:44:10.044Z,11.88
2023-05-13T06:47:16.451Z,11.73
2023-05-13T06:50:19.965Z,11.87
2023-05-13T06:53:23.209Z,12.01
2023-05-13T06:56:25.977Z,12.15
2023-05-13T06:59:28.840Z,12.03
2023-05-13T07:02:31.439Z,12.09
2023-05-13T07:05:34.775Z,12.31
2023-05-13T07:08:37.222Z,12.24
2023-05-13T07:11:40.030Z,12.30
2023-05-13T07:14:43.809Z,12.33
2023-05-13T07:17:46.358Z,12.48
2023-05-13T07:20:49.109Z,12.29
2023-05-13T07:23:51.853Z,12.46
2023-05-13T07:26:54.255Z,12.61
2023-05-13T07:29:56.837Z,12.51
2023-05-13T07:32:59.359Z,12.58
2023-05-13T07:36:01.850Z,12.61
2023-05-13T07:39:04.262Z,12.79
2023-05-13T07:42:07.098Z,12.82
2023-05-13T07:45:10.106Z,12.75
2023-05-13T07:48:12.834Z,12.84
2023-05-13T07:51:16.400Z,12.86
2023-05-13T07:54:18.884Z,12.80
2023-05-13T07:57:21.327Z,12.64
2023-05-13T08:00:23.981Z,12.70
2023-05-13T08:03:26.514Z,12.48
2023-05-13T08:06:28.952Z,12.40
2023-05-13T08:09:31.502Z,12.47
2023-05-13T08:12:33.987Z,12.40
2023-05-13T08:15:37.215Z,12.42
2023-05-13T08:18:39.756Z,12.32
2023-05-13T08:21:42.343Z,12.30
2023-05-13T08:24:44.842Z,12.25
2023-05-13T08:27:47.249Z,12.36
2023-05-13T08:30:49.676Z,12.24
2023-05-13T08:33:53.405Z,12.17
2023-05-13T08:36:55.817Z,12.19
2023-05-13T08:40:00.647Z,12.20
2023-05-13T08:43:04.529Z,12.34
2023-05-13T08:46:09.851Z,12.24
2023-05-13T08:49:12.592Z,12.29
2023-05-13T08:52:15.064Z,12.24
2023-05-13T08:55:17.641Z,12.36
2023-05-13T08:58:20.087Z,12.55
2023-05-13T09:01:24.148Z,12.52
2023-05-13T09:04:26.892Z,12.70
2023-05-13T09:07:33.085Z,12.79
2023-05-13T09:10:36.579Z,12.83
2023-05-13T09:13:38.931Z,12.88
2023-05-13T09:16:42.718Z,13.18
2023-05-13T09:19:45.372Z,13.30
2023-05-13T09:23:00.450Z,13.32
2023-05-13T09:26:02.990Z,13.45
2023-05-13T09:29:16.307Z,13.66
2023-05-13T09:32:18.737Z,13.50
2023-05-13T09:35:21.749Z,13.50
2023-05-13T09:38:29.106Z,13.67
2023-05-13T09:41:31.872Z,13.83
2023-05-13T09:44:35.546Z,14.04
2023-05-13T09:47:38.539Z,14.25
2023-05-13T09:50:49.329Z,14.64
2023-05-13T09:53:51.786Z,14.96
2023-05-13T09:57:00.023Z,14.96
2023-05-13T10:00:12.828Z,15.35
2023-05-13T10:03:21.967Z,15.42
2023-05-13T10:06:26.479Z,15.74
2023-05-13T10:09:34.672Z,15.33
2023-05-13T10:12:39.769Z,15.31
2023-05-13T10:15:53.180Z,15.05
2023-05-13T10:18:57.930Z,15.36
2023-05-13T10:22:01.462Z,15.56
2023-05-13T10:25:05.171Z,15.63
2023-05-13T10:28:09.204Z,15.80
2023-05-13T10:31:11.616Z,15.77
2023-05-13T10:34:14.335Z,15.47
2023-05-13T10:37:33.143Z,15.71
2023-05-13T10:41:00.549Z,16.09
2023-05-13T10:44:03.907Z,16.80
2023-05-13T10:47:09.698Z,17.06
2023-05-13T10:50:25.616Z,16.59
2023-05-13T10:53:30.317Z,16.39
2023-05-13T10:56:32.752Z,15.96
2023-05-13T10:59:37.228Z,15.98
2023-05-13T11:02:39.713Z,15.71
2023-05-13T11:05:58.790Z,15.74
2023-05-13T11:09:01.764Z,15.59
2023-05-13T11:12:05.018Z,15.64
2023-05-13T11:15:22.190Z,15.58
2023-05-13T11:18:31.506Z,15.40
2023-05-13T11:21:36.488Z,15.41
2023-05-13T11:24:40.089Z,15.44
2023-05-13T11:27:42.960Z,15.64
2023-05-13T11:30:55.834Z,15.66
2023-05-13T11:34:09.822Z,15.78
2023-05-13T11:37:12.338Z,15.50
2023-05-13T11:40:34.718Z,15.43
2023-05-13T11:43:40.119Z,15.37
2023-05-13T11:47:02.552Z,15.13
2023-05-13T11:50:19.434Z,15.07
2023-05-13T11:53:22.958Z,15.06
2023-05-13T11:56:29.037Z,15.19
2023-05-13T11:59:41.685Z,14.99
2023-05-13T12:02:50.907Z,15.14
2023-05-13T12:06:04.132Z,15.46
2023-05-13T12:09:07.352Z,15.95
2023-05-13T12:12:10.442Z,16.09
2023-05-13T12:15:17.316Z,16.23
2023-05-13T12:18:19.753Z,16.22
2023-05-13T12:21:22.226Z,16.05
2023-05-13T12:24:24.781Z,16.17
2023-05-13T12:27:28.044Z,15.98
2023-05-13T12:30:41.798Z,15.63
2023-05-13T12:33:46.867Z,15.52
2023-05-13T12:36:49.418Z,15.63
2023-05-13T12:40:09.591Z,15.93
2023-05-13T12:43:13.326Z,16.15
2023-05-13T12:46:15.815Z,16.20
2023-05-13T12:49:18.345Z,16.13
2023-05-13T12:52:21.773Z,16.37
2023-05-13T12:55:24.382Z,16.36
2023-05-13T12:58:27.004Z,16.44
2023-05-13T13:01:29.435Z,16.43
2023-05-13T13:04:32.136Z,16.73
2023-05-13T13:07:34.633Z,16.74
2023-05-13T13:10:37.134Z,16.53
2023-05-13T13:13:39.675Z,16.56
2023-05-13T13:16:42.837Z,16.62
2023-05-13T13:19:45.637Z,16.57
2023-05-13T13:22:48.093Z,16.35
2023-05-13T13:25:50.670Z,16.43
2023-05-13T13:28:53.114Z,16.48
2023-05-13T13:31:55.563Z,16.43
2023-05-13T13:34:58.349Z,16.45
2023-05-13T13:38:00.855Z,16.61
2023-05-13T13:41:03.325Z,16.68
2023-05-13T13:44:06.154Z,16.73
2023-05-13T13:47:09.765Z,16.69
2023-05-13T13:50:12.293Z,16.63
2023-05-13T13:53:14.717Z,16.49
2023-05-13T13:56:17.307Z,16.54
2023-05-13T13:59:19.744Z,16.40
2023-05-13T14:02:22.292Z,16.32
2023-05-13T14:05:24.866Z,16.22
2023-05-13T14:08:27.729Z,16.36
2023-05-13T14:11:30.176Z,16.41
2023-05-13T14:14:32.649Z,16.32
2023-05-13T14:17:35.191Z,16.52
2023-05-13T14:20:39.800Z,16.61
2023-05-13T14:23:43.348Z,16.59
2023-05-13T14:26:45.839Z,16.88
2023-05-13T14:29:48.777Z,16.92
2023-05-13T14:32:51.256Z,16.90
2023-05-13T14:35:54.067Z,16.94
2023-05-13T14:38:56.504Z,16.84
2023-05-13T14:41:59.093Z,16.90
2023-05-13T14:45:01.609Z,16.96
2023-05-13T14:48:04.190Z,16.92
2023-05-13T14:51:06.768Z,17.01
2023-05-13T14:54:09.347Z,16.88
2023-05-13T14:57:11.944Z,16.81
2023-05-13T15:00:14.935Z,16.81
2023-05-13T15:03:18.091Z,16.59
2023-05-13T15:06:20.753Z,16.38
2023-05-13T15:09:23.236Z,16.46
2023-05-13T15:12:26.336Z,16.37
2023-05-13T15:15:28.790Z,16.23
2023-05-13T15:18:31.485Z,16.04
2023-05-13T15:21:34.430Z,15.96
2023-05-13T15:24:37.709Z,15.93
2023-05-13T15:27:40.290Z,15.87
2023-05-13T15:30:43.223Z,15.69
2023-05-13T15:33:45.816Z,15.66
2023-05-13T15:36:48.273Z,15.61
2023-05-13T15:39:50.699Z,15.62
2023-05-13T15:42:53.154Z,15.44
2023-05-13T15:45:55.711Z,15.46
2023-05-13T15:48:58.150Z,15.42
2023-05-13T15:52:01.077Z,15.33
2023-05-13T15:55:05.042Z,15.35
2023-05-13T15:58:07.788Z,15.53
2023-05-13T16:01:10.223Z,15.40
2023-05-13T16:04:12.679Z,15.33
2023-05-13T16:07:15.169Z,15.44
2023-05-13T16:10:17.773Z,15.37
2023-05-13T16:13:21.644Z,15.38
2023-05-13T16:16:24.204Z,15.27
2023-05-13T16:19:26.848Z,15.24
2023-05-13T16:22:32.689Z,15.17
2023-05-13T16:25:35.227Z,15.12
2023-05-13T16:28:38.009Z,15.28
2023-05-13T16:31:40.739Z,15.09
2023-05-13T16:34:43.385Z,15.09
2023-05-13T16:37:46.474Z,15.09
2023-05-13T16:40:49.733Z,15.02
2023-05-13T16:43:52.158Z,15.04
2023-05-13T16:46:54.691Z,15.04
2023-05-13T16:49:57.430Z,14.94
2023-05-13T16:52:59.916Z,14.88
2023-05-13T16:56:02.399Z,14.88
2023-05-13T16:59:04.987Z,14.94
2023-05-13T17:02:07.786Z,14.79
2023-05-13T17:05:10.705Z,14.89
2023-05-13T17:08:13.135Z,14.90
2023-05-13T17:11:18.130Z,14.75
2023-05-13T17:14:20.801Z,14.68
2023-05-13T17:17:23.286Z,15.03
2023-05-13T17:20:25.752Z,15.14
2023-05-13T17:23:28.198Z,14.77
2023-05-13T17:26:31.466Z,14.73
2023-05-13T17:29:34.006Z,14.67
2023-05-13T17:32:36.536Z,14.63
2023-05-13T17:35:40.059Z,14.62
2023-05-13T17:38:42.663Z,14.55
2023-05-13T17:41:45.168Z,14.45
2023-05-13T17:44:47.677Z,14.51
2023-05-13T17:47:50.599Z,14.38
2023-05-13T17:50:53.117Z,14.35
2023-05-13T17:53:56.437Z,14.24
2023-05-13T17:56:58.940Z,14.28
2023-05-13T18:00:04.739Z,14.14
2023-05-13T18:03:07.496Z,14.10
2023-05-13T18:06:10.463Z,14.04
2023-05-13T18:09:13.053Z,14.11
2023-05-13T18:12:15.552Z,13.89
2023-05-13T18:15:18.028Z,13.91
2023-05-13T18:18:20.462Z,13.89
2023-05-13T18:21:24.175Z,13.86
2023-05-13T18:24:26.579Z,13.86
2023-05-13T18:27:29.016Z,13.83
2023-05-13T18:30:31.684Z,13.81
2023-05-13T18:33:34.204Z,13.64
2023-05-13T18:36:36.632Z,13.80
2023-05-13T18:39:39.054Z,13.70
2023-05-13T18:42:41.495Z,13.64
2023-05-13T18:45:44.051Z,13.73
2023-05-13T18:48:46.560Z,13.67
2023-05-13T18:51:49.080Z,13.71
2023-05-13T18:54:51.852Z,13.58
2023-05-13T18:57:54.334Z,13.63
2023-05-13T19:00:56.921Z,13.59
2023-05-13T19:03:59.531Z,13.59
2023-05-13T19:07:02.423Z,13.65
2023-05-13T19:10:05.204Z,13.55
2023-05-13T19:13:07.865Z,13.55
2023-05-13T19:16:10.436Z,13.52
2023-05-13T19:19:12.943Z,13.59
2023-05-13T19:22:15.330Z,13.44
2023-05-13T19:25:17.966Z,13.54
2023-05-13T19:28:20.645Z,13.46
2023-05-13T19:31:24.161Z,13.46
2023-05-13T19:34:26.857Z,13.42
2023-05-13T19:37:30.231Z,13.45
2023-05-13T19:40:32.754Z,13.54
2023-05-13T19:43:35.189Z,13.50
2023-05-13T19:46:38.200Z,13.42
2023-05-13T19:49:40.776Z,13.48
2023-05-13T19:52:43.799Z,13.44
2023-05-13T19:55:46.274Z,13.49
2023-05-13T19:58:49.165Z,13.37
2023-05-13T20:01:51.839Z,13.42
2023-05-13T20:04:54.242Z,13.26
2023-05-13T20:07:57.100Z,13.07
2023-05-13T20:10:59.618Z,12.98
2023-05-13T20:14:02.075Z,12.86
2023-05-13T20:17:04.647Z,12.63
2023-05-13T20:20:09.568Z,12.59
2023-05-13T20:23:13.841Z,12.47
2023-05-13T20:26:17.392Z,12.32
2023-05-13T20:29:19.879Z,12.33
2023-05-13T20:32:25.004Z,12.17
2023-05-13T20:35:27.643Z,12.18
2023-05-13T20:38:30.039Z,11.98
2023-05-13T20:41:32.864Z,11.93
2023-05-13T20:44:35.351Z,11.94
2023-05-13T20:47:37.784Z,11.87
2023-05-13T20:50:40.466Z,11.89
2023-05-13T20:53:43.140Z,11.78
2023-05-13T20:56:45.615Z,11.70
2023-05-13T20:59:48.148Z,11.67
2023-05-13T21:02:51.968Z,11.68
2023-05-13T21:05:54.460Z,11.58
2023-05-13T21:08:56.884Z,11.50
2023-05-13T21:11:59.360Z,11.35
2023-05-13T21:15:01.794Z,11.22
2023-05-13T21:18:04.513Z,11.14
2023-05-13T21:21:12.092Z,11.17
2023-05-13T21:24:17.490Z,11.13
2023-05-13T21:27:19.958Z,11.16
2023-05-13T21:30:22.839Z,11.17
2023-05-13T21:33:25.582Z,11.08
2023-05-13T21:36:28.062Z,11.06
2023-05-13T21:39:30.510Z,11.06
2023-05-13T21:42:32.918Z,11.04
2023-05-13T21:45:35.302Z,11.05
2023-05-13T21:48:37.967Z,10.97
2023-05-13T21:51:40.474Z,11.22
2023-05-13T21:54:42.865Z,11.14
2023-05-13T21:57:45.359Z,11.12
2023-05-13T22:00:47.796Z,11.04
2023-05-13T22:03:50.288Z,11.06
2023-05-13T22:06:52.725Z,11.09
2023-05-13T22:09:55.205Z,11.05
2023-05-13T22:12:57.684Z,11.00
2023-05-13T22:16:00.142Z,11.06
2023-05-13T22:19:04.338Z,11.03
2023-05-13T22:22:06.997Z,11.12
2023-05-13T22:25:09.686Z,11.08
2023-05-13T22:28:12.188Z,11.11
2023-05-13T22:31:16.126Z,11.07
2023-05-13T22:34:18.527Z,11.16
2023-05-13T22:37:21.016Z,11.05
2023-05-13T22:40:23.717Z,11.05
2023-05-13T22:43:26.290Z,11.09
2023-05-13T22:46:28.922Z,11.08
2023-05-13T22:49:31.519Z,11.05
2023-05-13T22:52:34.010Z,11.03
2023-05-13T22:55:36.518Z,10.99
2023-05-13T22:58:39.182Z,10.90
2023-05-13T23:01:41.776Z,11.01
2023-05-13T23:04:44.315Z,10.96
2023-05-13T23:07:46.822Z,11.00
2023-05-13T23:10:49.268Z,11.04
2023-05-13T23:13:51.733Z,11.11
2023-05-13T23:16:54.198Z,11.06
2023-05-13T23:19:56.696Z,10.99
2023-05-13T23:22:59.069Z,10.97
2023-05-13T23:26:01.481Z,10.97
2023-05-13T23:29:04.492Z,11.06
2023-05-13T23:32:07.476Z,10.93
2023-05-13T23:35:10.203Z,11.02
2023-05-13T23:38:12.598Z,10.99
2023-05-13T23:41:15.134Z,10.96
2023-05-13T23:44:17.866Z,10.99
2023-05-13T23:47:20.579Z,11.04
2023-05-13T23:50:23.217Z,11.03
2023-05-13T23:53:25.901Z,10.96
2023-05-13T23:56:28.559Z,11.03
2023-05-13T23:59:31.039Z,10.99
